Time;durP1;ratioP1;P1;durP2;ratioP2;P2;SDS_P1;SDS_P2;PMS_P1;PMS_P2;Temp;Humidity;BMP_temperature;BMP_pressure;BME280_temperature;BME280_humidity;BME280_pressure;Samples;Min_cycle;Max_cycle;Signal;HPM_P1;HPM_P2
2024/04/12 00:01:18;;;;;;;;;;;;;;;;;;5484209;26;20014;-71
2024/04/12 00:03:48;;;;;;;;;;;;;;;;;;5483489;26;20435;-70
2024/04/12 00:06:17;;;;;;;;;;;;;;;;;;5482635;26;19928;-69
2024/04/12 00:08:46;;;;;;;;;;;;;;;;;;5483231;26;19963;-70
2024/04/12 00:11:12;;;;;;;;;;;;;;;;;;5482948;26;20028;-70
2024/04/12 00:13:43;;;;;;;;;;;;;;;;;;5482813;26;19982;-70
2024/04/12 00:16:09;;;;;;;;;;;;;;;;;;5465649;26;20332;-70
2024/04/12 00:18:38;;;;;;;;;;;;;;;;;;5446568;26;19940;-70
2024/04/12 00:21:05;;;;;;;;;;;;;;;;;;5446372;26;19935;-71
2024/04/12 00:23:34;;;;;;;;;;;;;;;;;;5446236;26;19955;-70
2024/04/12 00:26:00;;;;;;;;;;;;;;;;;;5477348;26;19935;-70
2024/04/12 00:28:29;;;;;;;;;;;;;;;;;;5482579;26;20143;-69
2024/04/12 00:30:59;;;;;;;;;;;;;;;;;;5482272;26;19953;-70
2024/04/12 00:33:31;;;;;;;;;;;;;;;;;;5459915;26;19929;-70
2024/04/12 00:35:57;;;;;;;;;;;;;;;;;;5481319;26;19932;-71
2024/04/12 00:38:26;;;;;;;;;;;;;;;;;;5482492;26;19935;-70
2024/04/12 00:40:52;;;;;;;;;;;;;;;;;;5482396;26;19935;-70
2024/04/12 00:43:21;;;;;;;;;;;;;;;;;;5482204;26;19935;-70
2024/04/12 00:45:48;;;;;;;;;;;;;;;;;;5481640;26;20332;-70
2024/04/12 00:48:17;;;;;;;;;;;;;;;;;;5481802;26;19951;-70
2024/04/12 00:50:44;;;;;;;;;;;;;;;;;;5480809;26;20355;-71
2024/04/12 00:53:13;;;;;;;;;;;;;;;;;;5482510;26;19936;-71
2024/04/12 00:55:39;;;;;;;;;;;;;;;;;;5482627;26;19936;-70
2024/04/12 00:58:09;;;;;;;;;;;;;;;;;;5481681;26;20403;-71
2024/04/12 01:00:35;;;;;;;;;;;;;;;;;;5481880;26;19950;-70
2024/04/12 01:03:05;;;;;;;;;;;;;;;;;;5482224;26;19928;-70
2024/04/12 01:05:32;;;;;;;;;;;;;;;;;;5482226;26;19928;-70
2024/04/12 01:08:01;;;;;;;;;;;;;;;;;;5452080;26;20227;-71
2024/04/12 01:10:30;;;;;;;;;;;;;;;;;;5448306;26;19928;-70
2024/04/12 01:13:02;;;;;;;;;;;;;;;;;;5482165;26;19928;-70
2024/04/12 01:15:32;;;;;;;;;;;;;;;;;;5481941;26;19928;-70
2024/04/12 01:18:03;;;;;;;;;;;;;;;;;;5481593;26;19932;-70
2024/04/12 01:20:32;;;;;;;;;;;;;;;;;;5481516;26;19927;-71
2024/04/12 01:23:03;;;;;;;;;;;;;;;;;;5479832;26;20489;-70
2024/04/12 01:25:29;;;;;;;;;;;;;;;;;;5466062;26;19932;-70
2024/04/12 01:27:58;;;;;;;;;;;;;;;;;;5479767;26;19964;-70
2024/04/12 01:30:24;;;;;;;;;;;;;;;;;;5479445;26;19928;-70
2024/04/12 01:32:53;;;;;;;;;;;;;;;;;;5479681;26;19932;-71
2024/04/12 01:35:21;;;;;;;;;;;;;;;;;;5479455;26;19935;-71
2024/04/12 01:37:51;;;;;;;;;;;;;;;;;;5479446;26;19943;-70
2024/04/12 01:40:22;;;;;;;;;;;;;;;;;;5474889;26;20463;-71
2024/04/12 01:42:51;;;;;;;;;;;;;;;;;;5443500;26;20384;-70
2024/04/12 01:45:17;;;;;;;;;;;;;;;;;;5465468;26;19936;-71
2024/04/12 01:47:46;;;;;;;;;;;;;;;;;;5482857;26;19976;-71
2024/04/12 01:50:12;;;;;;;;;;;;;;;;;;5482311;26;20562;-70
2024/04/12 01:52:53;;;;;;;;;;;;;;;;;;5482558;26;19928;-71
2024/04/12 01:55:20;;;;;;;;;;;;;;;;;;5482732;26;19928;-70
2024/04/12 01:57:49;;;;;;;;;;;;;;;;;;5480879;26;19985;-70
2024/04/12 02:00:16;;;;;;;;;;;;;;;;;;5482744;26;19935;-70
2024/04/12 02:02:46;;;;;;;;;;;;;;;;;;5482805;26;19979;-70
2024/04/12 02:05:12;;;;;;;;;;;;;;;;;;5482931;26;19927;-70
2024/04/12 02:07:44;;;;;;;;;;;;;;;;;;5482444;26;19928;-70
2024/04/12 02:10:11;;;;;;;;;;;;;;;;;;5483006;26;19938;-70
2024/04/12 02:12:42;;;;;;;;;;;;;;;;;;5484287;26;19927;-70
2024/04/12 02:15:19;;;;;;;;;;;;;;;;;;5465602;26;20284;-72
2024/04/12 02:17:49;;;;;;;;;;;;;;;;;;5446272;26;19944;-71
2024/04/12 02:20:19;;;;;;;;;;;;;;;;;;5446451;26;19988;-69
2024/04/12 02:22:49;;;;;;;;;;;;;;;;;;5451675;26;19973;-71
2024/04/12 02:25:17;;;;;;;;;;;;;;;;;;5462885;26;19978;-71
2024/04/12 02:27:46;;;;;;;;;;;;;;;;;;5446103;26;19935;-71
2024/04/12 02:30:13;;;;;;;;;;;;;;;;;;5447683;26;19939;-71
2024/04/12 02:32:41;;;;;;;;;;;;;;;;;;5448879;26;19957;-71
2024/04/12 02:35:07;;;;;;;;;;;;;;;;;;5447458;26;19936;-71
2024/04/12 02:37:36;;;;;;;;;;;;;;;;;;5448068;26;19928;-71
2024/04/12 02:40:06;;;;;;;;;;;;;;;;;;5448251;26;19935;-71
2024/04/12 02:42:36;;;;;;;;;;;;;;;;;;5448007;26;19966;-71
2024/04/12 02:45:05;;;;;;;;;;;;;;;;;;5484685;26;20221;-71
2024/04/12 02:47:35;;;;;;;;;;;;;;;;;;5484347;26;19958;-71
2024/04/12 02:50:01;;;;;;;;;;;;;;;;;;5453700;26;19929;-71
2024/04/12 02:52:33;;;;;;;;;;;;;;;;;;5448005;26;19936;-71
2024/04/12 02:54:59;;;;;;;;;;;;;;;;;;5446907;26;19928;-71
2024/04/12 02:57:29;;;;;;;;;;;;;;;;;;5472648;26;19995;-70
2024/04/12 02:59:55;;;;;;;;;;;;;;;;;;5484182;26;19964;-71
2024/04/12 03:02:24;;;;;;;;;;;;;;;;;;5484742;26;20371;-71
2024/04/12 03:04:50;;;;;;;;;;;;;;;;;;5484027;26;20856;-71
2024/04/12 03:07:20;;;;;;;;;;;;;;;;;;5449258;26;19939;-71
2024/04/12 03:09:46;;;;;;;;;;;;;;;;;;5447302;26;19940;-71
2024/04/12 03:12:14;;;;;;;;;;;;;;;;;;5447454;26;19929;-71
2024/04/12 03:14:41;;;;;;;;;;;;;;;;;;5447310;26;19935;-71
2024/04/12 03:17:11;;;;;;;;;;;;;;;;;;5447256;26;19928;-71
2024/04/12 03:19:38;;;;;;;;;;;;;;;;;;5447313;26;19977;-71
2024/04/12 03:22:07;;;;;;;;;;;;;;;;;;5472757;26;19996;-72
2024/04/12 03:24:33;;;;;;;;;;;;;;;;;;5455920;26;19928;-71
2024/04/12 03:27:02;;;;;;;;;;;;;;;;;;5483654;26;19928;-71
2024/04/12 03:29:28;;;;;;;;;;;;;;;;;;5483505;26;19996;-71
2024/04/12 03:31:57;;;;;;;;;;;;;;;;;;5483611;26;19957;-71
2024/04/12 03:34:24;;;;;;;;;;;;;;;;;;5483134;26;20378;-71
2024/04/12 03:37:23;;;;;;;;;;;;;;;;;;5483380;26;19928;-71
2024/04/12 03:39:45;;;;;;;;;;;;;;;;;;5472332;26;19928;-70
2024/04/12 03:42:18;;;;;;;;;;;;;;;;;;5447299;26;20382;-71
2024/04/12 03:44:44;;;;;;;;;;;;;;;;;;5447291;26;19939;-72
2024/04/12 03:47:13;;;;;;;;;;;;;;;;;;5447292;26;19993;-72
2024/04/12 03:49:39;;;;;;;;;;;;;;;;;;5447100;26;19928;-71
2024/04/12 03:52:11;;;;;;;;;;;;;;;;;;5446980;26;19935;-71
2024/04/12 03:54:37;;;;;;;;;;;;;;;;;;5446882;26;19935;-71
2024/04/12 03:57:09;;;;;;;;;;;;;;;;;;5480212;26;19928;-71
2024/04/12 03:59:35;;;;;;;;;;;;;;;;;;5483063;26;19938;-71
2024/04/12 04:02:07;;;;;;;;;;;;;;;;;;5483231;26;20006;-71
2024/04/12 04:04:37;;;;;;;;;;;;;;;;;;5482742;26;19996;-71
2024/04/12 04:07:03;;;;;;;;;;;;;;;;;;5481436;26;19936;-70
2024/04/12 04:09:32;;;;;;;;;;;;;;;;;;5483416;26;19935;-71
2024/04/12 04:12:01;;;;;;;;;;;;;;;;;;5483195;26;19935;-71
2024/04/12 04:14:27;;;;;;;;;;;;;;;;;;5460945;26;19928;-70
2024/04/12 04:16:56;;;;;;;;;;;;;;;;;;5449752;26;19936;-71
2024/04/12 04:19:30;;;;;;;;;;;;;;;;;;5482751;26;19935;-70
2024/04/12 04:21:59;;;;;;;;;;;;;;;;;;5482653;26;19973;-71
2024/04/12 04:24:25;;;;;;;;;;;;;;;;;;5483309;26;19934;-70
2024/04/12 04:26:56;;;;;;;;;;;;;;;;;;5483384;26;20449;-70
2024/04/12 04:29:22;;;;;;;;;;;;;;;;;;5483169;26;19996;-70
2024/04/12 04:31:51;;;;;;;;;;;;;;;;;;5480826;26;20386;-71
2024/04/12 04:34:17;;;;;;;;;;;;;;;;;;5482444;26;19939;-71
2024/04/12 04:36:48;;;;;;;;;;;;;;;;;;5482554;26;19939;-71
2024/04/12 04:39:15;;;;;;;;;;;;;;;;;;5482092;26;19928;-71
2024/04/12 04:41:43;;;;;;;;;;;;;;;;;;5482574;26;19928;-71
2024/04/12 04:44:09;;;;;;;;;;;;;;;;;;5482397;26;19928;-71
2024/04/12 04:46:38;;;;;;;;;;;;;;;;;;5482397;26;19997;-71
2024/04/12 04:49:04;;;;;;;;;;;;;;;;;;5450065;26;19932;-71
2024/04/12 04:51:33;;;;;;;;;;;;;;;;;;5446026;26;19929;-70
2024/04/12 04:53:59;;;;;;;;;;;;;;;;;;5453778;26;19968;-71
2024/04/12 04:56:30;;;;;;;;;;;;;;;;;;5482064;26;19956;-71
2024/04/12 04:58:56;;;;;;;;;;;;;;;;;;5482689;26;20363;-71
2024/04/12 05:01:25;;;;;;;;;;;;;;;;;;5481768;26;19940;-70
2024/04/12 05:03:52;;;;;;;;;;;;;;;;;;5480516;26;19944;-71
2024/04/12 05:06:24;;;;;;;;;;;;;;;;;;5460524;26;19939;-71
2024/04/12 05:08:50;;;;;;;;;;;;;;;;;;5480158;26;20485;-70
2024/04/12 05:11:18;;;;;;;;;;;;;;;;;;5481414;26;19928;-70
2024/04/12 05:13:49;;;;;;;;;;;;;;;;;;5479710;26;19928;-70
2024/04/12 05:16:19;;;;;;;;;;;;;;;;;;5479885;26;19928;-70
2024/04/12 05:18:47;;;;;;;;;;;;;;;;;;5482249;26;19928;-70
2024/04/12 05:21:16;;;;;;;;;;;;;;;;;;5480530;26;19951;-70
2024/04/12 05:23:42;;;;;;;;;;;;;;;;;;5446573;26;19928;-72
2024/04/12 05:26:11;;;;;;;;;;;;;;;;;;5479177;26;20422;-71
2024/04/12 05:28:43;;;;;;;;;;;;;;;;;;5483684;26;19935;-73
2024/04/12 05:31:12;;;;;;;;;;;;;;;;;;5483208;26;19928;-70
2024/04/12 05:33:43;;;;;;;;;;;;;;;;;;5482452;26;19928;-70
2024/04/12 05:36:09;;;;;;;;;;;;;;;;;;5482829;26;20473;-70
2024/04/12 05:38:38;;;;;;;;;;;;;;;;;;5474327;26;19928;-70
2024/04/12 05:41:04;;;;;;;;;;;;;;;;;;5446511;26;19973;-71
2024/04/12 05:43:33;;;;;;;;;;;;;;;;;;5446053;26;20339;-70
2024/04/12 05:46:00;;;;;;;;;;;;;;;;;;5446326;26;19936;-70
2024/04/12 05:48:30;;;;;;;;;;;;;;;;;;5446461;26;19948;-70
2024/04/12 05:50:56;;;;;;;;;;;;;;;;;;5445704;26;19940;-71
2024/04/12 05:53:26;;;;;;;;;;;;;;;;;;5461238;26;19956;-70
2024/04/12 05:56:20;;;;;;;;;;;;;;;;;;5480108;26;19968;-70
2024/04/12 05:58:41;;;;;;;;;;;;;;;;;;5481638;26;19940;-70
2024/04/12 06:01:07;;;;;;;;;;;;;;;;;;5482452;26;19928;-70
2024/04/12 06:03:42;;;;;;;;;;;;;;;;;;5481861;26;19927;-70
2024/04/12 06:06:08;;;;;;;;;;;;;;;;;;5481501;26;19928;-70
2024/04/12 06:08:37;;;;;;;;;;;;;;;;;;5482472;26;19934;-70
2024/04/12 06:11:03;;;;;;;;;;;;;;;;;;5482391;26;19939;-69
2024/04/12 06:13:32;;;;;;;;;;;;;;;;;;5481119;26;19934;-70
2024/04/12 06:15:58;;;;;;;;;;;;;;;;;;5482152;26;19935;-70
2024/04/12 06:18:27;;;;;;;;;;;;;;;;;;5481826;26;19996;-70
2024/04/12 06:20:55;;;;;;;;;;;;;;;;;;5481674;26;19928;-70
2024/04/12 06:23:24;;;;;;;;;;;;;;;;;;5481244;26;19936;-70
2024/04/12 06:25:50;;;;;;;;;;;;;;;;;;5482188;26;20016;-71
2024/04/12 06:28:19;;;;;;;;;;;;;;;;;;5482910;26;20652;-70
2024/04/12 06:30:48;;;;;;;;;;;;;;;;;;5481031;26;19935;-70
2024/04/12 06:33:19;;;;;;;;;;;;;;;;;;5482898;26;19934;-69
2024/04/12 06:35:49;;;;;;;;;;;;;;;;;;5482094;26;19928;-70
2024/04/12 06:38:17;;;;;;;;;;;;;;;;;;5483185;26;19935;-69
2024/04/12 06:40:45;;;;;;;;;;;;;;;;;;5482354;26;20843;-69
2024/04/12 06:43:11;;;;;;;;;;;;;;;;;;5482018;26;20474;-70
2024/04/12 06:45:44;;;;;;;;;;;;;;;;;;5482051;26;19964;-70
2024/04/12 06:48:10;;;;;;;;;;;;;;;;;;5480761;26;19936;-69
2024/04/12 06:50:39;;;;;;;;;;;;;;;;;;5481741;26;19931;-74
2024/04/12 06:53:08;;;;;;;;;;;;;;;;;;5482166;26;19928;-70
2024/04/12 06:55:45;;;;;;;;;;;;;;;;;;5481643;26;19958;-71
2024/04/12 06:58:11;;;;;;;;;;;;;;;;;;5481584;26;19928;-71
2024/04/12 07:00:40;;;;;;;;;;;;;;;;;;5480938;26;19935;-70
2024/04/12 07:03:08;;;;;;;;;;;;;;;;;;5479565;26;19935;-71
2024/04/12 07:05:37;;;;;;;;;;;;;;;;;;5444811;26;20372;-71
2024/04/12 07:08:05;;;;;;;;;;;;;;;;;;5445118;26;20064;-70
2024/04/12 07:10:35;;;;;;;;;;;;;;;;;;5445157;26;20022;-69
2024/04/12 07:13:07;;;;;;;;;;;;;;;;;;5444667;26;19933;-69
2024/04/12 07:15:33;;;;;;;;;;;;;;;;;;5444175;26;20459;-71
2024/04/12 07:18:02;;;;;;;;;;;;;;;;;;5445103;26;19960;-71
2024/04/12 07:20:36;;;;;;;;;;;;;;;;;;5445577;26;20243;-69
2024/04/12 07:23:05;;;;;;;;;;;;;;;;;;5444331;26;20009;-69
2024/04/12 07:25:33;;;;;;;;;;;;;;;;;;5467750;26;20308;-70
2024/04/12 07:28:06;;;;;;;;;;;;;;;;;;5481252;26;20355;-70
2024/04/12 07:30:32;;;;;;;;;;;;;;;;;;5480607;26;19928;-71
2024/04/12 07:33:05;;;;;;;;;;;;;;;;;;5480856;26;19935;-71
2024/04/12 07:35:32;;;;;;;;;;;;;;;;;;5480115;26;19927;-71
2024/04/12 07:38:01;;;;;;;;;;;;;;;;;;5464940;26;19928;-71
2024/04/12 07:40:31;;;;;;;;;;;;;;;;;;5443414;26;20018;-70
2024/04/12 07:43:08;;;;;;;;;;;;;;;;;;5443871;26;19982;-71
2024/04/12 07:45:37;;;;;;;;;;;;;;;;;;5444470;26;19952;-72
2024/04/12 07:48:22;;;;;;;;;;;;;;;;;;5444597;26;19952;-71
2024/04/12 07:50:53;;;;;;;;;;;;;;;;;;5443924;26;19933;-71
2024/04/12 07:53:23;;;;;;;;;;;;;;;;;;5444005;26;19928;-70
2024/04/12 07:55:58;;;;;;;;;;;;;;;;;;5445635;26;20319;-71
2024/04/12 07:58:26;;;;;;;;;;;;;;;;;;5453211;26;20279;-71
2024/04/12 08:00:58;;;;;;;;;;;;;;;;;;5481100;26;19935;-70
2024/04/12 08:03:26;;;;;;;;;;;;;;;;;;5482686;26;19928;-70
2024/04/12 08:06:03;;;;;;;;;;;;;;;;;;5482940;26;19935;-72
2024/04/12 08:08:43;;;;;;;;;;;;;;;;;;5482614;26;19935;-71
2024/04/12 08:11:11;;;;;;;;;;;;;;;;;;5481775;26;19935;-72
2024/04/12 08:13:44;;;;;;;;;;;;;;;;;;5482957;26;19935;-73
2024/04/12 08:16:14;;;;;;;;;;;;;;;;;;5483018;26;19940;-71
2024/04/12 08:18:43;;;;;;;;;;;;;;;;;;5482516;26;20047;-72
2024/04/12 08:21:12;;;;;;;;;;;;;;;;;;5482711;26;19928;-74
2024/04/12 08:23:43;;;;;;;;;;;;;;;;;;5482484;26;19928;-71
2024/04/12 08:26:10;;;;;;;;;;;;;;;;;;5481792;26;20381;-74
2024/04/12 08:28:40;;;;;;;;;;;;;;;;;;5473039;26;20352;-71
2024/04/12 08:31:06;;;;;;;;;;;;;;;;;;5445957;26;19929;-72
2024/04/12 08:33:34;;;;;;;;;;;;;;;;;;5446095;26;20009;-72
2024/04/12 08:36:02;;;;;;;;;;;;;;;;;;5446257;26;19978;-71
2024/04/12 08:38:35;;;;;;;;;;;;;;;;;;5445561;26;19936;-71
2024/04/12 08:41:02;;;;;;;;;;;;;;;;;;5445414;26;19936;-72
2024/04/12 08:43:41;;;;;;;;;;;;;;;;;;5445402;26;20274;-72
2024/04/12 08:46:14;;;;;;;;;;;;;;;;;;5445209;26;19928;-72
2024/04/12 08:48:46;;;;;;;;;;;;;;;;;;5445194;26;19932;-71
2024/04/12 08:51:13;;;;;;;;;;;;;;;;;;5481881;26;20442;-73
2024/04/12 08:53:44;;;;;;;;;;;;;;;;;;5482814;26;20289;-72
2024/04/12 08:56:18;;;;;;;;;;;;;;;;;;5484509;26;19940;-72
2024/04/12 08:58:52;;;;;;;;;;;;;;;;;;5484166;26;19990;-72
2024/04/12 09:01:18;;;;;;;;;;;;;;;;;;5484677;26;19928;-71
2024/04/12 09:03:51;;;;;;;;;;;;;;;;;;5457794;26;19953;-72
2024/04/12 09:06:23;;;;;;;;;;;;;;;;;;5447982;26;19928;-72
2024/04/12 09:08:51;;;;;;;;;;;;;;;;;;5448023;26;19935;-72
2024/04/12 09:11:19;;;;;;;;;;;;;;;;;;5449156;26;20060;-72
2024/04/12 09:13:49;;;;;;;;;;;;;;;;;;5448566;26;19997;-72
2024/04/12 09:16:19;;;;;;;;;;;;;;;;;;5448606;26;19936;-71
2024/04/12 09:18:50;;;;;;;;;;;;;;;;;;5448043;26;19928;-71
2024/04/12 09:21:17;;;;;;;;;;;;;;;;;;5449813;26;19928;-72
2024/04/12 09:23:50;;;;;;;;;;;;;;;;;;5448008;26;19929;-71
2024/04/12 09:26:22;;;;;;;;;;;;;;;;;;5448465;26;19936;-71
2024/04/12 09:28:51;;;;;;;;;;;;;;;;;;5447637;26;20003;-72
2024/04/12 09:34:22;;;;;;;;;;;;;;;;;;5453523;26;19932;-72
2024/04/12 09:36:56;;;;;;;;;;;;;;;;;;5449392;26;19929;-72
2024/04/12 09:39:23;;;;;;;;;;;;;;;;;;5447231;26;19929;-71
2024/04/12 09:41:56;;;;;;;;;;;;;;;;;;5447813;26;19936;-72
2024/04/12 09:44:26;;;;;;;;;;;;;;;;;;5446972;26;20381;-72
2024/04/12 10:39:11;;;;;;;;;;;;;;;;;;5484513;26;20480;-72
2024/04/12 10:41:41;;;;;;;;;;;;;;;;;;5481669;26;19938;-71
2024/04/12 10:44:10;;;;;;;;;;;;;;;;;;5480041;26;19956;-72
2024/04/12 10:46:39;;;;;;;;;;;;;;;;;;5483277;26;19935;-73
2024/04/12 10:49:05;;;;;;;;;;;;;;;;;;5484338;26;19935;-72
2024/04/12 10:51:39;;;;;;;;;;;;;;;;;;5484054;26;19928;-72
2024/04/12 10:54:05;;;;;;;;;;;;;;;;;;5484223;26;19928;-72
2024/04/12 10:56:35;;;;;;;;;;;;;;;;;;5484176;26;19934;-72
2024/04/12 10:59:05;;;;;;;;;;;;;;;;;;5484269;26;20252;-72
2024/04/12 11:01:38;;;;;;;;;;;;;;;;;;5484649;26;19935;-72
2024/04/12 11:04:05;;;;;;;;;;;;;;;;;;5486151;26;20256;-72
2024/04/12 11:06:34;;;;;;;;;;;;;;;;;;5484970;26;19935;-72
2024/04/12 11:09:00;;;;;;;;;;;;;;;;;;5484413;26;20371;-72
2024/04/12 11:11:31;;;;;;;;;;;;;;;;;;5483541;26;20264;-72
2024/04/12 11:13:59;;;;;;;;;;;;;;;;;;5483990;26;20021;-72
2024/04/12 11:32:56;;;;;;;;;;;;;;;;;;5483781;26;19931;-72
2024/04/12 11:35:25;;;;;;;;;;;;;;;;;;5475808;26;19928;-71
2024/04/12 11:37:54;;;;;;;;;;;;;;;;;;5444248;26;19929;-72
2024/04/12 11:40:20;;;;;;;;;;;;;;;;;;5444334;26;19939;-71
2024/04/12 11:42:49;;;;;;;;;;;;;;;;;;5444256;26;19929;-71
2024/04/12 11:45:15;;;;;;;;;;;;;;;;;;5448608;26;19929;-71
2024/04/12 11:47:44;;;;;;;;;;;;;;;;;;5480916;26;20230;-72
2024/04/12 11:50:10;;;;;;;;;;;;;;;;;;5480716;26;19935;-71
2024/04/12 11:52:39;;;;;;;;;;;;;;;;;;5471246;26;19940;-72
2024/04/12 11:55:06;;;;;;;;;;;;;;;;;;5444655;26;20387;-72
2024/04/12 11:57:37;;;;;;;;;;;;;;;;;;5469753;26;19943;-72
2024/04/12 12:00:08;;;;;;;;;;;;;;;;;;5481986;26;19935;-72
2024/04/12 12:02:37;;;;;;;;;;;;;;;;;;5483191;26;19928;-72
2024/04/12 12:05:04;;;;;;;;;;;;;;;;;;5482748;26;20394;-72
2024/04/12 12:07:33;;;;;;;;;;;;;;;;;;5482455;26;19935;-72
2024/04/12 12:10:03;;;;;;;;;;;;;;;;;;5481331;26;20311;-72
2024/04/12 12:12:32;;;;;;;;;;;;;;;;;;5482834;26;20039;-73
2024/04/12 12:14:58;;;;;;;;;;;;;;;;;;5482679;26;19935;-72
2024/04/12 12:17:28;;;;;;;;;;;;;;;;;;5482434;26;20331;-73
2024/04/12 12:19:57;;;;;;;;;;;;;;;;;;5482620;26;19935;-73
2024/04/12 12:22:26;;;;;;;;;;;;;;;;;;5482800;26;19927;-72
2024/04/12 12:24:53;;;;;;;;;;;;;;;;;;5482362;26;20485;-72
2024/04/12 12:27:23;;;;;;;;;;;;;;;;;;5461361;26;20270;-72
2024/04/12 12:29:53;;;;;;;;;;;;;;;;;;5445611;26;19936;-72
2024/04/12 12:32:25;;;;;;;;;;;;;;;;;;5446500;26;19965;-73
2024/04/12 12:34:51;;;;;;;;;;;;;;;;;;5458263;26;20283;-72
2024/04/12 12:37:19;;;;;;;;;;;;;;;;;;5482355;26;19928;-73
2024/04/12 12:39:47;;;;;;;;;;;;;;;;;;5482526;26;19928;-73
2024/04/12 12:42:16;;;;;;;;;;;;;;;;;;5482003;26;20367;-72
2024/04/12 12:44:43;;;;;;;;;;;;;;;;;;5471932;26;19932;-73
2024/04/12 12:47:13;;;;;;;;;;;;;;;;;;5481010;26;19935;-72
2024/04/12 12:49:46;;;;;;;;;;;;;;;;;;5480706;26;20388;-74
2024/04/12 12:52:15;;;;;;;;;;;;;;;;;;5481132;26;19952;-73
2024/04/12 12:54:41;;;;;;;;;;;;;;;;;;5481202;26;20579;-73
2024/04/12 12:57:10;;;;;;;;;;;;;;;;;;5466692;26;19940;-73
2024/04/12 12:59:40;;;;;;;;;;;;;;;;;;5476752;26;19935;-73
2024/04/12 13:02:13;;;;;;;;;;;;;;;;;;5470457;26;19936;-72
2024/04/12 13:04:40;;;;;;;;;;;;;;;;;;5479015;26;20381;-72
2024/04/12 13:07:08;;;;;;;;;;;;;;;;;;5478358;26;19928;-72
2024/04/12 13:09:35;;;;;;;;;;;;;;;;;;5476658;26;19928;-71
2024/04/12 13:12:04;;;;;;;;;;;;;;;;;;5480075;26;19958;-72
2024/04/12 13:14:30;;;;;;;;;;;;;;;;;;5477245;26;19931;-72
2024/04/12 13:17:02;;;;;;;;;;;;;;;;;;5479042;26;19935;-73
2024/04/12 13:19:30;;;;;;;;;;;;;;;;;;5449813;26;19928;-71
2024/04/12 13:22:00;;;;;;;;;;;;;;;;;;5475275;26;19935;-72
2024/04/12 13:24:26;;;;;;;;;;;;;;;;;;5461996;26;19950;-72
2024/04/12 13:26:55;;;;;;;;;;;;;;;;;;5456247;26;20005;-73
2024/04/12 13:29:25;;;;;;;;;;;;;;;;;;5460178;26;19928;-72
2024/04/12 13:31:57;;;;;;;;;;;;;;;;;;5468950;26;19996;-72
2024/04/12 13:34:23;;;;;;;;;;;;;;;;;;5461800;26;19935;-73
2024/04/12 13:36:53;;;;;;;;;;;;;;;;;;5459449;26;19936;-72
2024/04/12 13:39:19;;;;;;;;;;;;;;;;;;5464131;26;20541;-72
2024/04/12 13:41:54;;;;;;;;;;;;;;;;;;5467872;26;20489;-73
2024/04/12 13:44:25;;;;;;;;;;;;;;;;;;5471374;26;19928;-72
2024/04/12 13:52:25;;;;;;;;;;;;;;;;;;5464220;26;20425;-72
2024/04/12 13:54:56;;;;;;;;;;;;;;;;;;5456091;26;19928;-72
2024/04/12 13:57:24;;;;;;;;;;;;;;;;;;5458747;26;19977;-73
2024/04/12 13:59:54;;;;;;;;;;;;;;;;;;5458968;26;20427;-72
2024/04/12 14:02:20;;;;;;;;;;;;;;;;;;5464836;26;19932;-72
2024/04/12 14:04:51;;;;;;;;;;;;;;;;;;5475580;26;20298;-73
2024/04/12 14:07:20;;;;;;;;;;;;;;;;;;5459967;26;20375;-73
2024/04/12 14:09:49;;;;;;;;;;;;;;;;;;5463926;26;19997;-72
2024/04/12 14:12:15;;;;;;;;;;;;;;;;;;5467972;26;19928;-72
2024/04/12 14:14:44;;;;;;;;;;;;;;;;;;5462916;26;20055;-72
2024/04/12 14:17:12;;;;;;;;;;;;;;;;;;5468933;26;19935;-72
2024/04/12 14:19:41;;;;;;;;;;;;;;;;;;5464273;26;19936;-73
2024/04/12 14:22:07;;;;;;;;;;;;;;;;;;5467021;26;19936;-72
2024/04/12 14:27:21;;;;;;;;;;;;;;;;;;5462734;26;19931;-72
2024/04/12 14:29:47;;;;;;;;;;;;;;;;;;5468353;26;19939;-72
2024/04/12 14:32:16;;;;;;;;;;;;;;;;;;5468761;26;19964;-72
2024/04/12 14:34:44;;;;;;;;;;;;;;;;;;5461365;26;20554;-71
2024/04/12 14:37:18;;;;;;;;;;;;;;;;;;5469500;26;19936;-72
2024/04/12 14:39:46;;;;;;;;;;;;;;;;;;5459588;26;19935;-72
2024/04/12 14:42:15;;;;;;;;;;;;;;;;;;5465512;26;20287;-72
2024/04/12 14:44:43;;;;;;;;;;;;;;;;;;5462652;26;19935;-72
2024/04/12 14:47:12;;;;;;;;;;;;;;;;;;5467714;26;20466;-72
2024/04/12 14:49:38;;;;;;;;;;;;;;;;;;5468702;26;19936;-72
2024/04/12 14:52:11;;;;;;;;;;;;;;;;;;5469170;26;19928;-71
2024/04/12 14:54:39;;;;;;;;;;;;;;;;;;5464957;26;19980;-71
2024/04/12 14:57:07;;;;;;;;;;;;;;;;;;5466140;26;19936;-71
2024/04/12 14:59:35;;;;;;;;;;;;;;;;;;5463798;26;19928;-71
2024/04/12 15:02:05;;;;;;;;;;;;;;;;;;5469450;26;20382;-73
2024/04/12 15:48:32;;;;;;;;;;;;;;;;;;5479301;26;19931;-74
2024/04/12 15:51:06;;;;;;;;;;;;;;;;;;5473556;26;19941;-73
2024/04/12 15:53:39;;;;;;;;;;;;;;;;;;5466666;26;19928;-73
2024/04/12 16:12:37;;;;;;;;;;;;;;;;;;5481909;26;20001;-73
2024/04/12 16:15:06;;;;;;;;;;;;;;;;;;5479889;26;19932;-73
2024/04/12 16:17:34;;;;;;;;;;;;;;;;;;5473617;26;19943;-73
2024/04/12 16:20:03;;;;;;;;;;;;;;;;;;5478900;26;19935;-72
2024/04/12 16:22:33;;;;;;;;;;;;;;;;;;5462084;26;19935;-73
2024/04/12 16:25:05;;;;;;;;;;;;;;;;;;5456020;26;20264;-73
2024/04/12 16:27:32;;;;;;;;;;;;;;;;;;5464330;26;19936;-73
2024/04/12 16:30:01;;;;;;;;;;;;;;;;;;5447919;26;19928;-73
2024/04/12 16:32:27;;;;;;;;;;;;;;;;;;5479438;26;19928;-73
2024/04/12 16:34:57;;;;;;;;;;;;;;;;;;5478176;26;19934;-72
2024/04/12 16:37:23;;;;;;;;;;;;;;;;;;5480048;26;19928;-73
2024/04/12 16:39:54;;;;;;;;;;;;;;;;;;5474996;26;19935;-73
2024/04/12 16:42:24;;;;;;;;;;;;;;;;;;5464816;26;19938;-73
2024/04/12 16:44:53;;;;;;;;;;;;;;;;;;5478409;26;19935;-73
2024/04/12 16:47:20;;;;;;;;;;;;;;;;;;5473649;26;19936;-72
2024/04/12 16:49:50;;;;;;;;;;;;;;;;;;5472437;26;19928;-73
2024/04/12 16:52:20;;;;;;;;;;;;;;;;;;5459442;26;19939;-72
2024/04/12 16:54:49;;;;;;;;;;;;;;;;;;5477567;26;20283;-73
2024/04/12 16:57:16;;;;;;;;;;;;;;;;;;5471353;26;19932;-73
2024/04/12 16:59:44;;;;;;;;;;;;;;;;;;5467184;26;20032;-74
2024/04/12 17:02:12;;;;;;;;;;;;;;;;;;5476291;26;19928;-73
2024/04/12 17:04:41;;;;;;;;;;;;;;;;;;5466297;26;20025;-71
2024/04/12 17:07:08;;;;;;;;;;;;;;;;;;5468370;26;20043;-73
2024/04/12 17:09:41;;;;;;;;;;;;;;;;;;5479393;26;19939;-71
2024/04/12 17:12:07;;;;;;;;;;;;;;;;;;5476682;26;19928;-69
2024/04/12 17:14:37;;;;;;;;;;;;;;;;;;5479409;26;20006;-72
2024/04/12 17:17:03;;;;;;;;;;;;;;;;;;5480436;26;20336;-72
2024/04/12 17:19:32;;;;;;;;;;;;;;;;;;5461491;26;19929;-72
2024/04/12 17:21:58;;;;;;;;;;;;;;;;;;5472404;26;19928;-73
2024/04/12 17:24:27;;;;;;;;;;;;;;;;;;5475046;26;19940;-72
2024/04/12 17:26:53;;;;;;;;;;;;;;;;;;5475675;26;19927;-71
2024/04/12 17:29:26;;;;;;;;;;;;;;;;;;5475008;26;19929;-73
2024/04/12 17:31:54;;;;;;;;;;;;;;;;;;5480820;26;20386;-72
2024/04/12 17:34:24;;;;;;;;;;;;;;;;;;5473541;26;19928;-72
2024/04/12 17:36:52;;;;;;;;;;;;;;;;;;5477550;26;19995;-73
2024/04/12 17:39:24;;;;;;;;;;;;;;;;;;5475939;26;20370;-71
2024/04/12 17:41:50;;;;;;;;;;;;;;;;;;5475684;26;19935;-72
2024/04/12 17:44:19;;;;;;;;;;;;;;;;;;5475059;26;19931;-73
2024/04/12 17:46:46;;;;;;;;;;;;;;;;;;5474255;26;19935;-73
2024/04/12 17:49:15;;;;;;;;;;;;;;;;;;5471068;26;19935;-72
2024/04/12 17:51:41;;;;;;;;;;;;;;;;;;5477192;26;19936;-72
2024/04/12 17:54:10;;;;;;;;;;;;;;;;;;5473601;26;19940;-72
2024/04/12 17:56:37;;;;;;;;;;;;;;;;;;5468694;26;19928;-72
2024/04/12 17:59:06;;;;;;;;;;;;;;;;;;5475495;26;20461;-72
2024/04/12 18:01:33;;;;;;;;;;;;;;;;;;5471849;26;19942;-72
2024/04/12 18:04:06;;;;;;;;;;;;;;;;;;5472859;26;19967;-73
2024/04/12 18:06:32;;;;;;;;;;;;;;;;;;5473445;26;19943;-72
2024/04/12 18:09:04;;;;;;;;;;;;;;;;;;5479709;26;19943;-71
2024/04/12 18:11:31;;;;;;;;;;;;;;;;;;5478433;26;19934;-71
2024/04/12 18:14:00;;;;;;;;;;;;;;;;;;5469916;26;20005;-71
2024/04/12 18:16:26;;;;;;;;;;;;;;;;;;5477617;26;20048;-71
2024/04/12 18:18:55;;;;;;;;;;;;;;;;;;5482478;26;20329;-72
2024/04/12 18:21:21;;;;;;;;;;;;;;;;;;5483229;26;19928;-72
2024/04/12 18:23:50;;;;;;;;;;;;;;;;;;5476965;26;19934;-72
2024/04/12 18:26:16;;;;;;;;;;;;;;;;;;5482336;26;19928;-72
2024/04/12 18:28:49;;;;;;;;;;;;;;;;;;5483796;26;20375;-72
2024/04/12 18:31:17;;;;;;;;;;;;;;;;;;5484953;26;19928;-72
2024/04/12 18:33:46;;;;;;;;;;;;;;;;;;5478296;26;20409;-71
2024/04/12 18:36:19;;;;;;;;;;;;;;;;;;5476365;26;20406;-71
2024/04/12 18:47:06;;;;;;;;;;;;;;;;;;5484849;26;20004;-72
2024/04/12 18:49:35;;;;;;;;;;;;;;;;;;5477599;26;19939;-73
2024/04/12 18:52:04;;;;;;;;;;;;;;;;;;5481553;26;19942;-72
2024/04/12 18:54:32;;;;;;;;;;;;;;;;;;5479354;26;20337;-72
2024/04/12 18:57:01;;;;;;;;;;;;;;;;;;5481112;26;19939;-71
2024/04/12 18:59:40;;;;;;;;;;;;;;;;;;5472071;26;20389;-74
2024/04/12 19:02:09;;;;;;;;;;;;;;;;;;5481852;26;19942;-72
2024/04/12 19:04:35;;;;;;;;;;;;;;;;;;5471213;26;19941;-72
2024/04/12 19:07:05;;;;;;;;;;;;;;;;;;5481924;26;19961;-72
2024/04/12 19:09:32;;;;;;;;;;;;;;;;;;5483021;26;19935;-73
2024/04/12 19:12:00;;;;;;;;;;;;;;;;;;5477145;26;19928;-72
2024/04/12 19:14:27;;;;;;;;;;;;;;;;;;5482352;26;19975;-72
2024/04/12 19:16:56;;;;;;;;;;;;;;;;;;5483307;26;19928;-72
2024/04/12 19:19:24;;;;;;;;;;;;;;;;;;5482970;26;19932;-73
2024/04/12 19:21:53;;;;;;;;;;;;;;;;;;5483342;26;19942;-72
2024/04/12 19:24:19;;;;;;;;;;;;;;;;;;5483362;26;20374;-71
2024/04/12 19:26:50;;;;;;;;;;;;;;;;;;5460940;26;19936;-71